首页
METAR-TAF:

METAR-TAF

机场 :

阿加尼亚, 關島, 美国

安東尼奧·汪帕特國際機場

纬度: 13-29N, 经度: 144-48E, 海拔: 91米

当前天气观测

该预报发布于29分钟前的02:54 UTC
风速12节,风向东转东北
温度 31°C
湿度 59%
气压 1011 hPa
能見度: 16.1公里
多云层高于3400英尺
多云层高于4500英尺

METAR: PGUM 200254Z 06012KT 10SM BKN034 BKN045 31/22 A2984 RMK AO2 SLP098 T03060222 58017

时间: 13:23 (03:23 UTC)

预报

该预报发布于3小时和55分钟前的23:28 UTC
预报有效从20日的 00点(UTC)到 21日的 06点(UTC)
风速15节,风向东转东北
能見度: 10公里
散云层高于2400英尺
从 20日的 0800点(UTC)
风速9节,风向东转东北
能見度: 10公里
少量云层高于2400英尺
散云层高于5000英尺

TAF: PGUM 192328Z 2000/2106 06015KT P6SM SCT024 FM200800 06009KT P6SM FEW024 SCT050

超过4000个机场的气象观测和天气预报(METAR&TAF报告)。

可查询的气象台以黄色和红色小点在地图上表示。

将鼠标移到小点上方,可查看气象台名称。

然后点击查看天气观测和预报。

如需切换地图:点击带黑十字的绿色按钮放大地图;点击带横线的绿色按钮缩小地图;或者点击绿色箭头查看邻近地区的地图。


METAR-TAF: